createdAt,value
2019-03-27T00:02:19.637Z,8.00
2019-03-27T00:04:46.365Z,7.00
2019-03-27T00:07:12.966Z,6.90
2019-03-27T00:09:39.499Z,6.93
2019-03-27T00:12:06.064Z,6.20
2019-03-27T00:14:32.601Z,6.33
2019-03-27T00:16:59.279Z,6.87
2019-03-27T00:19:26.051Z,6.10
2019-03-27T00:21:52.623Z,6.70
2019-03-27T00:24:19.160Z,5.97
2019-03-27T00:26:45.763Z,5.40
2019-03-27T00:29:12.292Z,5.70
2019-03-27T00:31:38.832Z,5.00
2019-03-27T00:34:05.380Z,5.00
2019-03-27T00:36:31.934Z,5.40
2019-03-27T00:38:58.560Z,4.83
2019-03-27T00:41:25.309Z,5.10
2019-03-27T00:43:51.840Z,5.47
2019-03-27T00:46:18.390Z,5.10
2019-03-27T00:48:44.923Z,5.60
2019-03-27T00:51:11.483Z,4.90
2019-03-27T00:53:38.142Z,6.13
2019-03-27T00:56:04.966Z,5.27
2019-03-27T00:58:31.580Z,5.77
2019-03-27T01:01:07.145Z,5.40
2019-03-27T01:03:33.758Z,4.90
2019-03-27T01:06:00.914Z,5.67
2019-03-27T01:08:27.445Z,5.67
2019-03-27T01:10:54.013Z,5.37
2019-03-27T01:13:20.639Z,5.77
2019-03-27T01:15:47.164Z,5.30
2019-03-27T01:18:13.720Z,5.30
2019-03-27T01:20:40.284Z,4.60
2019-03-27T01:23:06.854Z,4.83
2019-03-27T01:25:33.387Z,4.80
2019-03-27T01:27:59.951Z,4.83
2019-03-27T01:30:26.589Z,4.80
2019-03-27T01:32:53.236Z,4.37
2019-03-27T01:35:19.961Z,6.60
2019-03-27T01:37:47.754Z,4.60
2019-03-27T01:40:15.339Z,4.63
2019-03-27T01:42:42.006Z,5.07
2019-03-27T01:45:09.335Z,5.00
2019-03-27T01:47:35.890Z,4.70
2019-03-27T01:50:05.743Z,5.13
2019-03-27T01:52:32.379Z,4.93
2019-03-27T01:54:58.916Z,4.30
2019-03-27T01:57:25.476Z,5.30
2019-03-27T01:59:51.991Z,5.90
2019-03-27T02:02:18.670Z,5.27
2019-03-27T02:04:45.216Z,5.10
2019-03-27T02:07:11.752Z,5.23
2019-03-27T02:09:38.311Z,4.80
2019-03-27T02:12:04.957Z,5.30
2019-03-27T02:14:31.518Z,5.10
2019-03-27T02:16:58.132Z,5.80
2019-03-27T02:19:24.692Z,4.70
2019-03-27T02:21:51.248Z,5.07
2019-03-27T02:24:17.835Z,4.80
2019-03-27T02:26:44.352Z,5.03
2019-03-27T02:29:10.901Z,5.37
2019-03-27T02:31:37.441Z,4.60
2019-03-27T02:34:04.004Z,5.20
2019-03-27T02:36:30.619Z,5.53
2019-03-27T02:38:57.175Z,6.30
2019-03-27T02:41:23.794Z,5.40
2019-03-27T02:43:50.452Z,5.50
2019-03-27T02:46:24.329Z,6.03
2019-03-27T02:48:45.336Z,6.03
2019-03-27T02:51:11.862Z,5.50
2019-03-27T02:53:38.410Z,5.80
2019-03-27T02:56:04.939Z,6.00
2019-03-27T02:58:31.594Z,5.87
2019-03-27T03:00:58.620Z,5.60
2019-03-27T03:03:25.172Z,5.63
2019-03-27T03:05:51.792Z,6.03
2019-03-27T03:08:18.759Z,5.20
2019-03-27T03:10:46.073Z,5.47
2019-03-27T03:13:12.735Z,5.30
2019-03-27T03:15:39.255Z,5.70
2019-03-27T03:18:05.776Z,5.90
2019-03-27T03:20:32.364Z,5.80
2019-03-27T03:22:59.189Z,6.37
2019-03-27T03:25:25.840Z,5.77
2019-03-27T03:27:52.491Z,5.30
2019-03-27T03:30:19.255Z,5.57
2019-03-27T03:32:45.882Z,6.07
2019-03-27T03:35:13.135Z,5.60
2019-03-27T03:37:39.642Z,6.00
2019-03-27T03:40:07.411Z,5.40
2019-03-27T03:42:33.938Z,5.20
2019-03-27T03:45:00.498Z,5.90
2019-03-27T03:47:28.098Z,5.30
2019-03-27T03:49:54.670Z,5.13
2019-03-27T03:52:21.773Z,5.80
2019-03-27T03:54:50.232Z,5.60
2019-03-27T03:57:16.950Z,7.27
2019-03-27T03:59:44.600Z,6.03
2019-03-27T04:02:14.031Z,6.40
2019-03-27T04:04:41.692Z,6.23
2019-03-27T04:07:08.210Z,5.20
2019-03-27T04:09:34.865Z,5.17
2019-03-27T04:12:01.379Z,6.57
2019-03-27T04:14:28.039Z,5.30
2019-03-27T04:16:54.761Z,5.80
2019-03-27T04:19:21.512Z,6.30
2019-03-27T04:21:48.271Z,5.90
2019-03-27T04:24:14.939Z,5.87
2019-03-27T04:26:41.457Z,6.63
2019-03-27T04:29:07.981Z,6.03
2019-03-27T04:31:34.533Z,5.77
2019-03-27T04:34:01.051Z,7.20
2019-03-27T04:36:27.605Z,7.30
2019-03-27T04:38:54.116Z,6.87
2019-03-27T04:41:20.675Z,6.40
2019-03-27T04:43:47.699Z,6.47
2019-03-27T04:46:14.252Z,6.60
2019-03-27T04:48:40.964Z,6.47
2019-03-27T04:51:07.826Z,6.87
2019-03-27T04:53:34.340Z,7.67
2019-03-27T04:56:01.007Z,6.60
2019-03-27T04:58:27.924Z,6.90
2019-03-27T05:00:54.686Z,6.50
2019-03-27T05:03:21.321Z,7.20
2019-03-27T05:05:47.764Z,7.20
2019-03-27T05:08:14.300Z,7.23
2019-03-27T05:10:40.835Z,6.80
2019-03-27T05:13:07.363Z,7.77
2019-03-27T05:15:35.013Z,7.40
2019-03-27T05:18:01.516Z,8.10
2019-03-27T05:20:28.823Z,7.63
2019-03-27T05:22:55.436Z,7.53
2019-03-27T05:25:22.340Z,7.50
2019-03-27T05:27:50.560Z,7.40
2019-03-27T05:30:26.299Z,7.20
2019-03-27T05:32:52.831Z,8.40
2019-03-27T05:35:19.476Z,7.17
2019-03-27T05:37:45.999Z,8.03
2019-03-27T05:40:12.516Z,7.30
2019-03-27T05:42:39.084Z,7.93
2019-03-27T05:45:05.947Z,7.10
2019-03-27T05:47:32.492Z,7.80
2019-03-27T05:49:59.015Z,7.30
2019-03-27T05:52:26.568Z,7.60
2019-03-27T05:54:53.189Z,7.53
2019-03-27T05:57:19.969Z,7.83
2019-03-27T05:59:46.492Z,7.00
2019-03-27T06:02:13.040Z,7.90
2019-03-27T06:04:39.555Z,7.23
2019-03-27T06:07:06.107Z,7.93
2019-03-27T06:09:32.624Z,7.80
2019-03-27T06:11:59.179Z,7.93
2019-03-27T06:14:25.703Z,8.20
2019-03-27T06:16:52.253Z,7.27
2019-03-27T06:19:19.084Z,7.43
2019-03-27T06:21:45.632Z,7.67
2019-03-27T06:24:12.254Z,7.70
2019-03-27T06:26:38.805Z,8.80
2019-03-27T06:29:05.371Z,7.93
2019-03-27T06:31:32.029Z,8.27
2019-03-27T06:33:58.754Z,8.90
2019-03-27T06:36:25.380Z,8.20
2019-03-27T06:38:51.936Z,8.10
2019-03-27T06:41:18.464Z,8.20
2019-03-27T06:43:45.118Z,8.07
2019-03-27T06:46:12.048Z,8.57
2019-03-27T06:48:38.700Z,9.43
2019-03-27T06:51:05.321Z,8.97
2019-03-27T06:53:31.973Z,8.10
2019-03-27T06:55:58.631Z,9.70
2019-03-27T06:58:25.297Z,8.03
2019-03-27T07:00:51.805Z,8.67
2019-03-27T07:03:18.356Z,9.30
2019-03-27T07:05:44.979Z,9.53
2019-03-27T07:08:11.547Z,9.00
2019-03-27T07:10:38.070Z,8.70
2019-03-27T07:13:04.624Z,9.30
2019-03-27T07:15:31.140Z,8.73
2019-03-27T07:17:57.697Z,9.40
2019-03-27T07:20:24.305Z,8.90
2019-03-27T07:22:50.934Z,9.70
2019-03-27T07:25:17.590Z,8.73
2019-03-27T07:27:44.199Z,9.60
2019-03-27T07:30:12.463Z,8.20
2019-03-27T07:32:39.089Z,9.60
2019-03-27T07:35:05.886Z,10.00
2019-03-27T07:37:32.599Z,10.00
2019-03-27T07:40:00.432Z,10.87
2019-03-27T07:42:29.192Z,10.80
2019-03-27T07:44:56.639Z,10.63
2019-03-27T07:47:23.261Z,10.23
2019-03-27T07:49:49.931Z,10.00
2019-03-27T07:52:16.531Z,9.30
2019-03-27T07:54:43.722Z,10.50
2019-03-27T07:57:10.376Z,10.30
2019-03-27T07:59:37.041Z,11.30
2019-03-27T08:02:03.765Z,11.00
2019-03-27T08:04:30.529Z,11.13
2019-03-27T08:06:57.155Z,10.67
2019-03-27T08:09:23.862Z,10.80
2019-03-27T08:11:50.480Z,10.87
2019-03-27T08:14:17.031Z,12.00
2019-03-27T08:16:43.548Z,11.10
2019-03-27T08:19:10.121Z,11.27
2019-03-27T08:21:36.632Z,11.70
2019-03-27T08:24:03.163Z,11.53
2019-03-27T08:26:38.943Z,12.00
2019-03-27T08:29:05.680Z,10.80
2019-03-27T08:31:32.233Z,10.20
2019-03-27T08:33:58.772Z,11.07
2019-03-27T08:36:25.529Z,11.17
2019-03-27T08:38:52.052Z,10.30
2019-03-27T08:41:18.703Z,9.17
2019-03-27T08:43:45.229Z,9.60
2019-03-27T08:46:12.684Z,9.67
2019-03-27T08:48:39.512Z,9.90
2019-03-27T08:51:06.448Z,9.57
2019-03-27T08:53:33.173Z,9.80
2019-03-27T08:55:59.955Z,10.37
2019-03-27T08:58:26.981Z,10.00
2019-03-27T09:00:54.044Z,10.07
2019-03-27T09:03:20.965Z,11.07
2019-03-27T09:05:48.124Z,9.20
2019-03-27T09:08:15.363Z,10.40
2019-03-27T09:10:42.529Z,9.07
2019-03-27T09:13:09.748Z,10.37
2019-03-27T09:15:36.326Z,10.13
2019-03-27T09:18:03.147Z,10.43
2019-03-27T09:20:29.695Z,9.70
2019-03-27T09:22:57.745Z,10.60
2019-03-27T09:25:24.795Z,9.70
2019-03-27T09:27:51.523Z,10.30
2019-03-27T09:30:18.853Z,10.20
2019-03-27T09:32:45.425Z,11.10
2019-03-27T09:35:12.547Z,10.33
2019-03-27T09:37:39.148Z,10.07
2019-03-27T09:40:06.778Z,10.37
2019-03-27T09:42:33.328Z,10.83
2019-03-27T09:44:59.989Z,9.80
2019-03-27T09:47:26.559Z,10.50
2019-03-27T09:49:53.092Z,9.40
2019-03-27T09:52:19.657Z,10.07
2019-03-27T09:54:46.393Z,9.80
2019-03-27T09:57:12.942Z,10.87
2019-03-27T09:59:39.571Z,11.23
2019-03-27T10:02:06.218Z,12.00
2019-03-27T10:04:32.933Z,13.03
2019-03-27T10:06:59.598Z,13.87
2019-03-27T10:09:26.116Z,12.47
2019-03-27T10:11:52.676Z,13.10
2019-03-27T10:14:19.300Z,11.87
2019-03-27T10:16:46.055Z,11.73
2019-03-27T10:19:12.580Z,10.60
2019-03-27T10:21:39.242Z,12.00
2019-03-27T10:24:06.851Z,10.00
2019-03-27T10:26:33.513Z,10.23
2019-03-27T10:29:01.837Z,9.23
2019-03-27T10:31:30.097Z,8.07
2019-03-27T10:33:58.320Z,8.07
2019-03-27T10:36:25.056Z,7.77
2019-03-27T10:38:52.191Z,7.93
2019-03-27T10:41:18.709Z,8.27
2019-03-27T10:43:45.260Z,7.70
2019-03-27T10:46:11.816Z,6.83
2019-03-27T10:48:51.536Z,6.07
2019-03-27T10:51:06.692Z,6.30
2019-03-27T10:53:33.285Z,6.73
2019-03-27T10:56:00.104Z,6.40
2019-03-27T10:58:26.669Z,6.30
2019-03-27T11:00:53.380Z,6.90
2019-03-27T11:03:20.248Z,5.63
2019-03-27T11:05:46.775Z,5.97
2019-03-27T11:08:13.375Z,6.00
2019-03-27T11:10:39.885Z,7.00
2019-03-27T11:13:06.444Z,6.23
2019-03-27T11:15:32.964Z,5.63
2019-03-27T11:17:59.636Z,5.87
2019-03-27T11:20:31.440Z,5.70
2019-03-27T11:22:56.129Z,5.20
2019-03-27T11:25:22.745Z,5.20
2019-03-27T11:27:49.402Z,5.90
2019-03-27T11:30:16.640Z,4.80
2019-03-27T11:32:43.302Z,4.90
2019-03-27T11:35:10.116Z,5.30
2019-03-27T11:37:36.776Z,5.13
2019-03-27T11:40:04.500Z,5.13
2019-03-27T11:42:32.765Z,4.80
2019-03-27T11:45:00.685Z,6.07
2019-03-27T11:47:28.278Z,5.33
2019-03-27T11:49:54.789Z,4.90
2019-03-27T11:52:21.848Z,4.37
2019-03-27T11:54:49.068Z,5.63
2019-03-27T11:57:15.794Z,5.27
2019-03-27T11:59:53.379Z,5.30
2019-03-27T12:02:11.276Z,5.03
2019-03-27T12:04:37.968Z,5.83
2019-03-27T12:07:06.237Z,4.70
2019-03-27T12:09:32.844Z,4.10
2019-03-27T12:11:59.960Z,4.90
2019-03-27T12:14:28.216Z,4.47
2019-03-27T12:16:54.946Z,5.43
2019-03-27T12:19:22.616Z,3.77
2019-03-27T12:21:50.053Z,4.10
2019-03-27T12:24:16.699Z,4.93
2019-03-27T12:26:43.320Z,4.80
2019-03-27T12:29:10.085Z,5.03
2019-03-27T12:31:38.311Z,5.20
2019-03-27T12:34:04.956Z,4.70
2019-03-27T12:36:33.179Z,4.70
2019-03-27T12:39:00.064Z,4.20
2019-03-27T12:41:27.681Z,4.50
2019-03-27T12:43:55.234Z,4.40
2019-03-27T12:46:21.976Z,4.30
2019-03-27T12:48:48.731Z,4.50
2019-03-27T12:51:15.555Z,4.90
2019-03-27T12:53:43.803Z,5.27
2019-03-27T12:56:10.927Z,4.77
2019-03-27T12:58:37.973Z,4.30
2019-03-27T13:01:04.600Z,4.00
2019-03-27T13:03:32.871Z,4.40
2019-03-27T13:06:01.173Z,4.27
2019-03-27T13:08:29.435Z,4.23
2019-03-27T13:10:56.988Z,4.20
2019-03-27T13:13:24.521Z,4.00
2019-03-27T13:15:51.885Z,4.30
2019-03-27T13:18:19.307Z,4.13
2019-03-27T13:20:46.976Z,4.23
2019-03-27T13:23:13.622Z,4.20
2019-03-27T13:25:40.390Z,3.80
2019-03-27T13:28:07.411Z,3.70
2019-03-27T13:30:34.169Z,2.90
2019-03-27T13:33:00.896Z,2.87
2019-03-27T13:35:28.462Z,2.70
2019-03-27T13:37:56.170Z,2.73
2019-03-27T13:40:23.537Z,2.77
2019-03-27T13:42:50.153Z,2.90
2019-03-27T13:45:17.828Z,3.00
2019-03-27T13:47:44.381Z,3.27
2019-03-27T13:50:13.458Z,3.27
2019-03-27T13:52:40.066Z,3.67
2019-03-27T13:55:07.320Z,3.20
2019-03-27T13:57:34.575Z,3.10
2019-03-27T14:00:01.353Z,3.50
2019-03-27T14:02:27.983Z,3.30
2019-03-27T14:04:54.640Z,3.37
2019-03-27T14:07:21.279Z,3.30
2019-03-27T14:09:47.924Z,3.37
2019-03-27T14:12:14.544Z,3.77
2019-03-27T14:14:50.299Z,3.80
2019-03-27T14:17:09.655Z,4.00
2019-03-27T14:19:36.379Z,4.20
2019-03-27T14:22:03.129Z,3.70
2019-03-27T14:24:29.764Z,4.10
2019-03-27T14:26:57.312Z,3.40
2019-03-27T14:29:23.829Z,3.20
2019-03-27T14:31:50.535Z,3.80
2019-03-27T14:34:17.104Z,4.43
2019-03-27T14:36:43.864Z,6.37
2019-03-27T14:39:11.386Z,7.37
2019-03-27T14:41:39.639Z,7.10
2019-03-27T14:44:06.359Z,7.80
2019-03-27T14:46:32.948Z,7.50
2019-03-27T14:48:59.674Z,7.80
2019-03-27T14:51:26.637Z,8.33
2019-03-27T14:53:53.360Z,7.87
2019-03-27T14:56:20.118Z,7.60
2019-03-27T14:58:47.748Z,7.10
2019-03-27T15:01:14.316Z,7.10
2019-03-27T15:03:40.961Z,7.00
2019-03-27T15:06:07.704Z,6.47
2019-03-27T15:08:35.932Z,7.47
2019-03-27T15:11:03.203Z,6.33
2019-03-27T15:13:29.925Z,7.13
2019-03-27T15:15:56.989Z,7.00
2019-03-27T15:18:23.608Z,6.70
2019-03-27T15:20:51.072Z,5.97
2019-03-27T15:23:17.679Z,6.30
2019-03-27T15:25:44.359Z,6.17
2019-03-27T15:28:10.953Z,6.60
2019-03-27T15:30:39.223Z,6.80
2019-03-27T15:33:06.645Z,6.40
2019-03-27T15:35:33.409Z,7.17
2019-03-27T15:38:00.545Z,7.23
2019-03-27T15:40:39.980Z,6.10
2019-03-27T15:43:07.696Z,6.73
2019-03-27T15:45:34.451Z,6.83
2019-03-27T15:48:02.530Z,6.60
2019-03-27T15:50:30.736Z,6.20
2019-03-27T15:52:58.593Z,6.50
2019-03-27T15:55:26.116Z,6.33
2019-03-27T15:57:54.373Z,6.43
2019-03-27T16:00:21.800Z,6.70
2019-03-27T16:02:49.373Z,6.20
2019-03-27T16:05:17.079Z,7.03
2019-03-27T16:07:43.836Z,6.30
2019-03-27T16:10:11.360Z,6.73
2019-03-27T16:12:38.017Z,6.00
2019-03-27T16:15:06.550Z,5.93
2019-03-27T16:17:33.398Z,5.67
2019-03-27T16:20:00.016Z,5.67
2019-03-27T16:22:28.287Z,5.90
2019-03-27T16:24:54.920Z,5.60
2019-03-27T16:27:22.566Z,5.40
2019-03-27T16:29:49.290Z,5.23
2019-03-27T16:32:16.140Z,5.90
2019-03-27T16:34:43.819Z,5.43
2019-03-27T16:37:10.481Z,5.10
2019-03-27T16:39:37.707Z,4.80
2019-03-27T16:42:04.870Z,5.43
2019-03-27T16:44:31.613Z,4.43
2019-03-27T16:46:59.299Z,5.37
2019-03-27T16:49:26.517Z,4.93
2019-03-27T16:51:56.259Z,5.27
2019-03-27T16:54:22.593Z,4.73
2019-03-27T16:56:49.284Z,4.73
2019-03-27T16:59:16.011Z,4.70
2019-03-27T17:01:42.628Z,5.07
2019-03-27T17:04:09.589Z,5.10
2019-03-27T17:06:37.808Z,4.00
2019-03-27T17:09:06.161Z,4.50
2019-03-27T17:11:32.885Z,3.93
2019-03-27T17:13:59.942Z,4.40
2019-03-27T17:16:28.162Z,4.47
2019-03-27T17:18:54.818Z,4.00
2019-03-27T17:21:21.642Z,4.43
2019-03-27T17:23:48.296Z,5.00
2019-03-27T17:26:14.922Z,4.30
2019-03-27T17:28:41.571Z,5.20
2019-03-27T17:31:08.297Z,5.03
2019-03-27T17:33:34.944Z,5.60
2019-03-27T17:36:01.567Z,5.37
2019-03-27T17:38:29.833Z,5.00
2019-03-27T17:40:57.536Z,5.77
2019-03-27T17:43:24.304Z,6.30
2019-03-27T17:45:51.747Z,5.90
2019-03-27T17:48:18.520Z,7.23
2019-03-27T17:50:46.052Z,6.50
2019-03-27T17:53:12.712Z,6.50
2019-03-27T17:55:39.436Z,7.03
2019-03-27T17:58:06.798Z,7.47
2019-03-27T18:00:41.434Z,8.00
2019-03-27T18:03:08.887Z,7.90
2019-03-27T18:05:38.577Z,8.60
2019-03-27T18:08:05.076Z,8.37
2019-03-27T18:10:31.810Z,9.27
2019-03-27T18:13:00.028Z,9.73
2019-03-27T18:15:27.288Z,9.00
2019-03-27T18:17:53.923Z,9.50
2019-03-27T18:20:20.779Z,9.47
2019-03-27T18:22:48.306Z,9.77
2019-03-27T18:25:14.960Z,10.00
2019-03-27T18:27:41.581Z,9.40
2019-03-27T18:30:08.702Z,9.40
2019-03-27T18:32:35.161Z,9.03
2019-03-27T18:35:02.334Z,9.03
2019-03-27T18:37:29.257Z,9.10
2019-03-27T18:39:55.812Z,8.07
2019-03-27T18:42:22.448Z,9.00
2019-03-27T18:44:49.003Z,9.43
2019-03-27T18:47:15.646Z,9.10
2019-03-27T18:49:42.510Z,8.70
2019-03-27T18:52:10.111Z,8.73
2019-03-27T18:54:36.759Z,8.93
2019-03-27T18:57:03.776Z,8.67
2019-03-27T18:59:31.465Z,8.13
2019-03-27T19:01:59.275Z,8.33
2019-03-27T19:04:26.846Z,8.43
2019-03-27T19:06:54.152Z,8.03
2019-03-27T19:09:21.322Z,8.80
2019-03-27T19:11:48.636Z,9.47
2019-03-27T19:14:15.798Z,9.70
2019-03-27T19:16:44.025Z,9.40
2019-03-27T19:19:10.878Z,9.93
2019-03-27T19:21:39.537Z,10.67
2019-03-27T19:24:14.672Z,10.80
2019-03-27T19:26:36.219Z,12.30
2019-03-27T19:29:03.778Z,12.97
2019-03-27T19:31:30.836Z,13.83
2019-03-27T19:34:00.142Z,14.53
2019-03-27T19:36:28.812Z,15.30
2019-03-27T19:38:56.687Z,14.13
2019-03-27T19:41:23.380Z,14.80
2019-03-27T19:43:51.164Z,14.23
2019-03-27T19:46:18.401Z,16.00
2019-03-27T19:48:45.071Z,15.97
2019-03-27T19:51:12.289Z,16.40
2019-03-27T19:53:40.558Z,16.47
2019-03-27T19:56:07.429Z,16.17
2019-03-27T19:58:35.703Z,16.10
2019-03-27T20:01:05.180Z,17.03
2019-03-27T20:03:34.631Z,16.60
2019-03-27T20:06:01.557Z,17.57
2019-03-27T20:08:32.758Z,18.37
2019-03-27T20:11:00.788Z,17.63
2019-03-27T20:13:28.345Z,17.33
2019-03-27T20:15:56.109Z,16.80
2019-03-27T20:18:24.283Z,16.40
2019-03-27T20:20:50.980Z,16.83
2019-03-27T20:23:18.609Z,16.93
2019-03-27T20:25:45.418Z,16.87
2019-03-27T20:28:12.064Z,17.07
2019-03-27T20:30:39.141Z,18.63
2019-03-27T20:33:07.214Z,17.83
2019-03-27T20:35:33.921Z,16.97
2019-03-27T20:38:00.535Z,17.60
2019-03-27T20:40:28.631Z,17.67
2019-03-27T20:42:55.340Z,17.03
2019-03-27T20:45:23.062Z,17.10
2019-03-27T20:47:49.723Z,16.73
2019-03-27T20:50:17.114Z,17.40
2019-03-27T20:52:43.858Z,16.83
2019-03-27T20:55:11.085Z,17.23
2019-03-27T20:57:37.704Z,16.13
2019-03-27T21:00:05.341Z,17.50
2019-03-27T21:02:33.617Z,17.20
2019-03-27T21:05:00.373Z,17.17
2019-03-27T21:07:28.224Z,17.70
2019-03-27T21:09:56.171Z,16.00
2019-03-27T21:12:22.883Z,14.93
2019-03-27T21:14:50.273Z,16.90
2019-03-27T21:17:19.156Z,16.90
2019-03-27T21:19:45.948Z,16.77
2019-03-27T21:22:13.148Z,17.30
2019-03-27T21:24:41.047Z,15.67
2019-03-27T21:27:09.402Z,16.37
2019-03-27T21:29:37.975Z,16.33
2019-03-27T21:32:06.161Z,16.70
2019-03-27T21:34:32.846Z,15.60
2019-03-27T21:37:00.434Z,17.03
2019-03-27T21:39:29.237Z,16.30
2019-03-27T21:41:55.881Z,16.10
2019-03-27T21:44:23.169Z,15.60
2019-03-27T21:46:50.378Z,15.83
2019-03-27T21:49:17.205Z,17.30
2019-03-27T21:51:44.267Z,17.07
2019-03-27T21:54:10.882Z,15.47
2019-03-27T21:56:37.833Z,14.63
2019-03-27T21:59:04.485Z,15.57
2019-03-27T22:01:31.233Z,15.70
2019-03-27T22:03:57.899Z,15.90
2019-03-27T22:06:25.812Z,16.47
2019-03-27T22:08:54.669Z,16.10
2019-03-27T22:11:21.480Z,16.30
2019-03-27T22:13:48.276Z,16.10
2019-03-27T22:16:16.088Z,15.43
2019-03-27T22:18:43.122Z,15.60
2019-03-27T22:21:10.167Z,16.00
2019-03-27T22:23:37.212Z,16.40
2019-03-27T22:26:04.465Z,15.93
2019-03-27T22:28:32.877Z,16.20
2019-03-27T22:30:59.988Z,17.30
2019-03-27T22:33:28.884Z,16.10
2019-03-27T22:35:55.917Z,14.23
2019-03-27T22:38:23.103Z,15.27
2019-03-27T22:40:50.537Z,15.40
2019-03-27T22:43:17.791Z,16.23
2019-03-27T22:45:46.580Z,15.90
2019-03-27T22:48:14.247Z,15.00
2019-03-27T22:50:41.076Z,14.93
2019-03-27T22:53:08.039Z,14.60
2019-03-27T22:55:34.736Z,14.87
2019-03-27T22:58:01.745Z,13.50
2019-03-27T23:00:39.813Z,15.17
2019-03-27T23:03:17.754Z,15.00
2019-03-27T23:05:36.716Z,14.87
2019-03-27T23:08:04.288Z,13.97
2019-03-27T23:10:32.793Z,14.43
2019-03-27T23:12:59.541Z,14.70
2019-03-27T23:15:27.837Z,14.23
2019-03-27T23:17:54.539Z,15.17
2019-03-27T23:20:21.204Z,15.17
2019-03-27T23:22:48.712Z,15.17
2019-03-27T23:25:15.784Z,13.90
2019-03-27T23:27:42.868Z,15.07
2019-03-27T23:30:10.516Z,14.20
2019-03-27T23:32:37.138Z,13.27
2019-03-27T23:35:06.263Z,13.13
2019-03-27T23:37:32.873Z,14.60
2019-03-27T23:39:59.535Z,13.83
2019-03-27T23:42:26.163Z,14.30
2019-03-27T23:44:53.816Z,14.77
2019-03-27T23:47:21.276Z,14.80
2019-03-27T23:49:48.642Z,14.10
2019-03-27T23:52:15.269Z,14.57
2019-03-27T23:54:41.992Z,15.47
2019-03-27T23:57:08.715Z,14.70
2019-03-27T23:59:35.473Z,15.73
